Guenther Schulte — VRGK8 — position and weather

sailwx.info

Track history (hours):
 
Tides and Currents Weather Stations Pressure Air Temp Water Temp Dewpoint Dewpoint Depression Visibility Wind Speed Wind Dir Waves Ship Positions

Guenther Schulte

Last reported at 2014-Oct-29 22:33 UTC. Time now 2014-Oct-31 11:25 UTC.
Position S 38°52' E 145°30'.

Length 231 m; draft 11 m.

Type: Ship (hazmat cat C). MMSI: 477728800.

Date/timePositionNaut miles runAvg speedWind from/ knotsBaromVisibWave heightAir tempDewpointWater temp
2014-Oct-29 22:33S 38°52' E 145°30'2020.0
2014-Oct-29 21:33S 39°01' E 145°52'2019.5
2014-Oct-29 20:33S 39°11' E 146°14'1818.4
2014-Oct-29 19:34S 39°08' E 146°38'1919.3
2014-Oct-29 18:33S 39°01' E 147°01'1919.4
2014-Oct-29 17:33S 38°55' E 147°25'  
2014-Oct-26 04:33S 36°14' E 174°57'1111.1
2014-Oct-26 03:33S 36°25' E 175°00'1010.2
2014-Oct-26 02:34S 36°35' E 174°59'1110.5
2014-Oct-26 01:34S 36°44' E 174°51'8 7.8
2014-Oct-26 00:33S 36°51' E 174°47'0 0.1
2014-Oct-25 23:33S 36°51' E 174°47'0 0.0
2014-Oct-25 22:33S 36°51' E 174°47'0 0.0
2014-Oct-25 21:27S 36°51' E 174°47'0 0.0
2014-Oct-25 20:33S 36°51' E 174°47'0 0.0
2014-Oct-25 19:33S 36°51' E 174°47'0 0.0
2014-Oct-25 18:33S 36°51' E 174°47'0 0.0
2014-Oct-25 17:24S 36°51' E 174°47'0 0.0
2014-Oct-25 16:33S 36°51' E 174°47'0 0.0
2014-Oct-25 15:33S 36°51' E 174°47'0 0.0
2014-Oct-25 14:33S 36°51' E 174°47'0 0.0
2014-Oct-25 13:32S 36°51' E 174°47'0 0.0
2014-Oct-25 12:32S 36°51' E 174°47'0 0.0
2014-Oct-25 11:32S 36°51' E 174°47'0 0.0
2014-Oct-25 10:32S 36°51' E 174°47'0 0.0
2014-Oct-25 09:32S 36°51' E 174°47'0 0.0
2014-Oct-25 08:32S 36°51' E 174°47'0 0.0
2014-Oct-25 07:32S 36°51' E 174°47'0 0.0
2014-Oct-25 06:32S 36°51' E 174°47'0 0.0
2014-Oct-25 05:32S 36°51' E 174°47'0 0.0
2014-Oct-25 04:33S 36°51' E 174°47'3 3.3
2014-Oct-25 03:33S 36°48' E 174°49'9 8.7
2014-Oct-25 02:33S 36°40' E 174°54'8 7.8
2014-Oct-25 01:33S 36°34' E 175°00'10 9.6
2014-Oct-25 00:33S 36°28' E 175°09'9 9.2
2014-Oct-24 23:33S 36°22' E 175°19'24 9.8
2014-Oct-24 21:07S 36°14' E 175°47'  
Track history (hours):
 
Tides and Currents Weather Stations Pressure Air Temp Water Temp Dewpoint Dewpoint Depression Visibility Wind Speed Wind Dir Waves Ship Positions

Guenther Schulte

Last reported at 2014-Oct-29 22:33 UTC. Time now 2014-Oct-31 11:25 UTC.
Position S 38°52' E 145°30'.

Length 231 m; draft 11 m.

Type: Ship (hazmat cat C). MMSI: 477728800.

Date/timePositionNaut miles runAvg speedWind from/ knotsBaromVisibWave heightAir tempDewpointWater temp
2014-Oct-29 22:33S 38°52' E 145°30'2020.0
2014-Oct-29 21:33S 39°01' E 145°52'2019.5
2014-Oct-29 20:33S 39°11' E 146°14'1818.4
2014-Oct-29 19:34S 39°08' E 146°38'1919.3
2014-Oct-29 18:33S 39°01' E 147°01'1919.4
2014-Oct-29 17:33S 38°55' E 147°25'  
2014-Oct-26 04:33S 36°14' E 174°57'1111.1
2014-Oct-26 03:33S 36°25' E 175°00'1010.2
2014-Oct-26 02:34S 36°35' E 174°59'1110.5
2014-Oct-26 01:34S 36°44' E 174°51'8 7.8
2014-Oct-26 00:33S 36°51' E 174°47'0 0.1
2014-Oct-25 23:33S 36°51' E 174°47'0 0.0
2014-Oct-25 22:33S 36°51' E 174°47'0 0.0
2014-Oct-25 21:27S 36°51' E 174°47'0 0.0
2014-Oct-25 20:33S 36°51' E 174°47'0 0.0
2014-Oct-25 19:33S 36°51' E 174°47'0 0.0
2014-Oct-25 18:33S 36°51' E 174°47'0 0.0
2014-Oct-25 17:24S 36°51' E 174°47'0 0.0
2014-Oct-25 16:33S 36°51' E 174°47'0 0.0
2014-Oct-25 15:33S 36°51' E 174°47'0 0.0
2014-Oct-25 14:33S 36°51' E 174°47'0 0.0
2014-Oct-25 13:32S 36°51' E 174°47'0 0.0
2014-Oct-25 12:32S 36°51' E 174°47'0 0.0
2014-Oct-25 11:32S 36°51' E 174°47'0 0.0
2014-Oct-25 10:32S 36°51' E 174°47'0 0.0
2014-Oct-25 09:32S 36°51' E 174°47'0 0.0
2014-Oct-25 08:32S 36°51' E 174°47'0 0.0
2014-Oct-25 07:32S 36°51' E 174°47'0 0.0
2014-Oct-25 06:32S 36°51' E 174°47'0 0.0
2014-Oct-25 05:32S 36°51' E 174°47'0 0.0
2014-Oct-25 04:33S 36°51' E 174°47'3 3.3
2014-Oct-25 03:33S 36°48' E 174°49'9 8.7
2014-Oct-25 02:33S 36°40' E 174°54'8 7.8
2014-Oct-25 01:33S 36°34' E 175°00'10 9.6
2014-Oct-25 00:33S 36°28' E 175°09'9 9.2
2014-Oct-24 23:33S 36°22' E 175°19'24 9.8
2014-Oct-24 21:07S 36°14' E 175°47'  

Dump ship's entire track history